< < Back
Terminal Aerodrome Forecast


Current Version              Previous Versions:   1  2  3  4  5  6  7  8  9  

Terminal Aerodrome Forecast

056
FTUS42 KJAX 141700
TAFJAX
TAF
KJAX 141737Z 1418/1518 10008KT P6SM VCSH SCT030 BKN250
     FM142000 11010KT P6SM FEW030 BKN250
     FM150200 14004KT P6SM BKN250
     FM151600 24004KT P6SM VCSH SCT030=

Latest METAR

489
SAUS80 KWBC 150200 CCA
MTRJAX
METAR KJAX 150156Z 15004KT 10SM FEW020 BKN250 26/24 A3014 RMK AO2 SLP207
T02610244


USA.gov is the U.S. government's official web portal to all federal, state and local government web resources and services.